Terminal Aerodrome Forecast
Issued by NWS

Home | Current Version | Previous Version | Text Only | Print | Product List | Glossary On
Versions: 1 2 3 4 5 6 7 8 9 10 11 12 13 14 15
000
FTUS42 KTBW 042135 AAC
TAFPGD
TAF AMD
KPGD 042135Z 0422/0518 VRB15G25KT 3SM TSRA SCT025 BKN035CB
      TEMPO 0422/0423 VRB22G32KT 1SM TSRA SCT010 BKN025CB
     FM042300 10007KT P6SM VCTS SCT050CB BKN200
     FM050200 09003KT P6SM SCT050 BKN250
     FM051500 18005KT P6SM FEW030 SCT250=

USA.gov is the U.S. government's official web portal to all federal, state and local government web resources and services.